createdAt,value
2019-03-21T00:01:38.966Z,-0.03
2019-03-21T00:04:12.484Z,0.01
2019-03-21T00:06:43.425Z,0.07
2019-03-21T00:09:17.030Z,0.17
2019-03-21T00:11:59.508Z,0.05
2019-03-21T00:14:39.581Z,-0.03
2019-03-21T00:17:22.580Z,-0.11
2019-03-21T00:19:53.560Z,-0.17
2019-03-21T00:22:27.491Z,-0.22
2019-03-21T00:24:58.494Z,-0.29
2019-03-21T00:27:29.388Z,-0.30
2019-03-21T00:30:00.379Z,-0.30
2019-03-21T00:32:31.220Z,-0.30
2019-03-21T00:35:02.125Z,-0.36
2019-03-21T00:37:33.135Z,-0.38
2019-03-21T00:40:06.372Z,-0.39
2019-03-21T00:42:37.255Z,-0.35
2019-03-21T00:45:11.508Z,-0.34
2019-03-21T00:47:42.790Z,-0.30
2019-03-21T00:50:16.715Z,-0.23
2019-03-21T00:52:49.870Z,-0.20
2019-03-21T00:55:21.389Z,-0.20
2019-03-21T00:57:52.344Z,-0.23
2019-03-21T01:00:32.231Z,-0.28
2019-03-21T01:03:03.831Z,-0.31
2019-03-21T01:05:34.916Z,-0.35
2019-03-21T01:08:05.875Z,-0.37
2019-03-21T01:10:36.824Z,-0.42
2019-03-21T01:13:07.773Z,-0.46
2019-03-21T01:15:38.691Z,-0.48
2019-03-21T01:18:09.721Z,-0.55
2019-03-21T01:20:40.772Z,-0.57
2019-03-21T01:23:11.656Z,-0.59
2019-03-21T01:26:00.497Z,-0.64
2019-03-21T01:28:31.610Z,-0.70
2019-03-21T01:31:02.510Z,-0.78
2019-03-21T01:33:33.412Z,-0.82
2019-03-21T01:36:06.325Z,-0.86
2019-03-21T01:38:37.360Z,-0.89
2019-03-21T01:41:16.858Z,-0.91
2019-03-21T01:43:47.789Z,-1.00
2019-03-21T01:46:21.181Z,-1.03
2019-03-21T01:48:52.077Z,-1.05
2019-03-21T01:51:22.973Z,-1.03
2019-03-21T01:53:55.327Z,-1.06
2019-03-21T01:56:28.163Z,-1.11
2019-03-21T01:58:59.195Z,-1.18
2019-03-21T02:01:30.183Z,-1.27
2019-03-21T02:04:01.075Z,-1.32
2019-03-21T02:06:32.060Z,-1.35
2019-03-21T02:09:04.691Z,-1.33
2019-03-21T02:11:35.665Z,-1.27
2019-03-21T02:14:06.671Z,-1.25
2019-03-21T02:16:37.560Z,-1.23
2019-03-21T02:19:08.663Z,-1.21
2019-03-21T02:21:39.899Z,-1.27
2019-03-21T02:24:10.851Z,-1.26
2019-03-21T02:26:41.888Z,-1.26
2019-03-21T02:29:12.868Z,-1.30
2019-03-21T02:31:43.895Z,-1.30
2019-03-21T02:34:14.845Z,-1.33
2019-03-21T02:36:45.985Z,-1.32
2019-03-21T02:39:16.917Z,-1.28
2019-03-21T02:41:48.040Z,-1.27
2019-03-21T02:44:19.108Z,-1.30
2019-03-21T02:46:50.107Z,-1.30
2019-03-21T02:49:21.169Z,-1.35
2019-03-21T02:51:52.161Z,-1.36
2019-03-21T02:54:23.029Z,-1.34
2019-03-21T02:56:54.065Z,-1.30
2019-03-21T02:59:25.005Z,-1.28
2019-03-21T03:01:56.140Z,-1.30
2019-03-21T03:04:27.062Z,-1.30
2019-03-21T03:06:59.724Z,-1.28
2019-03-21T03:09:30.542Z,-1.29
2019-03-21T03:12:01.591Z,-1.27
2019-03-21T03:14:42.897Z,-1.27
2019-03-21T03:17:13.823Z,-1.27
2019-03-21T03:19:44.737Z,-1.27
2019-03-21T03:22:16.117Z,-1.31
2019-03-21T03:24:47.004Z,-1.38
2019-03-21T03:27:17.941Z,-1.37
2019-03-21T03:29:48.869Z,-1.38
2019-03-21T03:32:19.908Z,-1.47
2019-03-21T03:34:51.179Z,-1.53
2019-03-21T03:37:22.246Z,-1.59
2019-03-21T03:39:53.228Z,-1.65
2019-03-21T03:42:24.481Z,-1.74
2019-03-21T03:45:03.227Z,-1.66
2019-03-21T03:47:34.169Z,-1.73
2019-03-21T03:50:08.441Z,-1.79
2019-03-21T03:52:39.503Z,-1.86
2019-03-21T03:55:15.938Z,-1.87
2019-03-21T03:57:49.077Z,-1.90
2019-03-21T04:00:22.747Z,-1.92
2019-03-21T04:02:55.882Z,-1.94
2019-03-21T04:05:26.734Z,-2.00
2019-03-21T04:07:57.629Z,-1.97
2019-03-21T04:10:40.021Z,-1.96
2019-03-21T04:13:11.129Z,-1.99
2019-03-21T04:15:52.664Z,-2.01
2019-03-21T04:18:15.717Z,-1.90
2019-03-21T04:21:02.329Z,-1.84
2019-03-21T04:23:33.237Z,-1.90
2019-03-21T04:26:09.674Z,-1.81
2019-03-21T04:28:41.765Z,-1.73
2019-03-21T04:31:12.812Z,-1.61
2019-03-21T04:33:45.582Z,-1.62
2019-03-21T04:36:16.496Z,-1.73
2019-03-21T04:38:47.403Z,-1.86
2019-03-21T04:41:18.258Z,-1.95
2019-03-21T04:43:49.372Z,-2.00
2019-03-21T04:46:20.350Z,-1.94
2019-03-21T04:48:51.256Z,-1.95
2019-03-21T04:51:22.158Z,-1.93
2019-03-21T04:53:53.609Z,-1.99
2019-03-21T04:56:24.602Z,-1.99
2019-03-21T04:58:55.616Z,-1.97
2019-03-21T05:01:26.522Z,-1.93
2019-03-21T05:03:57.694Z,-2.03
2019-03-21T05:06:28.680Z,-2.02
2019-03-21T05:08:59.580Z,-2.01
2019-03-21T05:11:30.655Z,-2.00
2019-03-21T05:14:01.592Z,-1.97
2019-03-21T05:16:32.490Z,-1.93
2019-03-21T05:19:03.477Z,-1.99
2019-03-21T05:21:34.513Z,-2.01
2019-03-21T05:24:05.557Z,-1.99
2019-03-21T05:26:37.064Z,-1.95
2019-03-21T05:29:07.941Z,-1.93
2019-03-21T05:31:38.850Z,-1.89
2019-03-21T05:34:09.817Z,-1.94
2019-03-21T05:36:41.135Z,-1.93
2019-03-21T05:39:12.439Z,-1.89
2019-03-21T05:41:43.347Z,-1.85
2019-03-21T05:44:19.943Z,-1.82
2019-03-21T05:46:50.899Z,-1.78
2019-03-21T05:49:22.003Z,-1.75
2019-03-21T05:51:52.996Z,-1.73
2019-03-21T05:54:23.906Z,-1.68
2019-03-21T05:56:55.611Z,-1.68
2019-03-21T05:59:26.870Z,-1.59
2019-03-21T06:01:57.827Z,-1.36
2019-03-21T06:04:28.912Z,-1.02
2019-03-21T06:07:08.720Z,-0.78
2019-03-21T06:09:39.747Z,-0.49
2019-03-21T06:12:10.703Z,-0.23
2019-03-21T06:14:44.774Z,0.08
2019-03-21T06:17:15.738Z,0.52
2019-03-21T06:19:59.050Z,0.99
2019-03-21T06:22:52.472Z,1.30
2019-03-21T06:25:29.276Z,1.40
2019-03-21T06:28:00.149Z,1.31
2019-03-21T06:30:31.037Z,1.24
2019-03-21T06:33:01.995Z,1.11
2019-03-21T06:35:33.127Z,1.14
2019-03-21T06:38:04.149Z,1.21
2019-03-21T06:40:35.101Z,1.33
2019-03-21T06:43:06.089Z,1.42
2019-03-21T06:45:47.557Z,1.50
2019-03-21T06:48:09.761Z,1.56
2019-03-21T06:50:40.679Z,1.70
2019-03-21T06:53:11.576Z,1.72
2019-03-21T06:55:44.887Z,1.82
2019-03-21T06:58:16.205Z,1.95
2019-03-21T07:00:47.149Z,2.00
2019-03-21T07:03:18.168Z,2.17
2019-03-21T07:05:49.265Z,2.34
2019-03-21T07:08:20.411Z,2.52
2019-03-21T07:10:51.507Z,2.85
2019-03-21T07:13:22.757Z,3.08
2019-03-21T07:15:53.708Z,3.41
2019-03-21T07:18:24.732Z,3.75
2019-03-21T07:20:55.677Z,3.92
2019-03-21T07:23:26.715Z,4.13
2019-03-21T07:25:57.860Z,4.34
2019-03-21T07:28:28.837Z,4.77
2019-03-21T07:30:59.793Z,5.04
2019-03-21T07:33:30.853Z,5.28
2019-03-21T07:36:01.758Z,5.59
2019-03-21T07:38:32.905Z,5.85
2019-03-21T07:41:03.900Z,5.89
2019-03-21T07:43:34.928Z,6.16
2019-03-21T07:46:05.973Z,6.31
2019-03-21T07:48:36.873Z,6.54
2019-03-21T07:51:07.917Z,6.78
2019-03-21T07:53:38.788Z,7.16
2019-03-21T07:56:09.737Z,7.36
2019-03-21T07:58:40.785Z,7.37
2019-03-21T08:01:11.817Z,7.85
2019-03-21T08:03:42.719Z,7.81
2019-03-21T08:06:13.687Z,7.86
2019-03-21T08:08:44.566Z,8.28
2019-03-21T08:11:15.521Z,8.54
2019-03-21T08:13:46.479Z,8.66
2019-03-21T08:16:17.379Z,8.92
2019-03-21T08:18:48.327Z,9.31
2019-03-21T08:21:21.720Z,9.45
2019-03-21T08:23:52.973Z,9.66
2019-03-21T08:26:23.992Z,9.86
2019-03-21T08:28:55.015Z,10.15
2019-03-21T08:31:25.995Z,10.43
2019-03-21T08:33:57.052Z,10.77
2019-03-21T08:36:28.115Z,10.69
2019-03-21T08:38:59.011Z,10.87
2019-03-21T08:41:30.155Z,11.06
2019-03-21T08:44:01.055Z,11.32
2019-03-21T08:46:32.052Z,11.08
2019-03-21T08:49:03.138Z,11.06
2019-03-21T08:51:34.181Z,11.51
2019-03-21T08:54:05.216Z,11.79
2019-03-21T08:56:36.244Z,12.60
2019-03-21T08:59:07.122Z,13.36
2019-03-21T09:01:38.159Z,13.86
2019-03-21T09:04:09.139Z,13.99
2019-03-21T09:06:40.127Z,14.33
2019-03-21T09:09:11.061Z,14.44
2019-03-21T09:11:42.320Z,14.58
2019-03-21T09:14:13.590Z,15.08
2019-03-21T09:16:44.969Z,15.42
2019-03-21T09:19:15.982Z,15.88
2019-03-21T09:21:46.930Z,16.37
2019-03-21T09:24:18.139Z,16.57
2019-03-21T09:26:49.106Z,15.97
2019-03-21T09:29:20.096Z,16.47
2019-03-21T09:31:51.122Z,17.20
2019-03-21T09:34:22.182Z,17.54
2019-03-21T09:36:53.190Z,17.69
2019-03-21T09:39:24.267Z,17.70
2019-03-21T09:41:55.152Z,17.88
2019-03-21T09:44:28.150Z,17.69
2019-03-21T09:46:59.059Z,18.06
2019-03-21T09:49:30.048Z,18.03
2019-03-21T09:52:00.971Z,18.53
2019-03-21T09:54:32.654Z,18.86
2019-03-21T09:57:03.659Z,19.11
2019-03-21T09:59:34.641Z,19.86
2019-03-21T10:02:05.657Z,20.31
2019-03-21T10:04:36.600Z,19.72
2019-03-21T10:07:07.559Z,20.00
2019-03-21T10:09:38.706Z,19.96
2019-03-21T10:12:09.726Z,20.58
2019-03-21T10:14:40.780Z,19.95
2019-03-21T10:17:11.836Z,19.95
2019-03-21T10:19:42.773Z,20.11
2019-03-21T10:22:13.808Z,20.96
2019-03-21T10:24:45.107Z,21.06
2019-03-21T10:27:16.191Z,19.60
2019-03-21T10:29:47.133Z,19.60
2019-03-21T10:32:18.337Z,19.80
2019-03-21T10:34:49.381Z,20.12
2019-03-21T10:37:20.419Z,20.32
2019-03-21T10:39:51.306Z,20.32
2019-03-21T10:42:22.664Z,20.92
2019-03-21T10:44:53.540Z,20.79
2019-03-21T10:47:24.557Z,21.07
2019-03-21T10:49:55.667Z,19.96
2019-03-21T10:52:26.672Z,20.90
2019-03-21T10:54:57.743Z,21.58
2019-03-21T10:57:28.597Z,21.89
2019-03-21T11:00:01.818Z,22.39
2019-03-21T11:02:32.128Z,21.25
2019-03-21T11:05:03.085Z,21.29
2019-03-21T11:07:34.077Z,21.10
2019-03-21T11:10:06.859Z,21.00
2019-03-21T11:12:37.801Z,20.36
2019-03-21T11:15:08.934Z,21.00
2019-03-21T11:17:39.887Z,20.29
2019-03-21T11:20:12.626Z,20.61
2019-03-21T11:22:43.604Z,20.42
2019-03-21T11:25:14.660Z,21.94
2019-03-21T11:27:45.607Z,21.20
2019-03-21T11:30:19.627Z,20.76
2019-03-21T11:32:50.737Z,20.24
2019-03-21T11:35:21.815Z,20.79
2019-03-21T11:37:52.831Z,21.58
2019-03-21T11:40:23.855Z,22.93
2019-03-21T11:42:54.910Z,22.93
2019-03-21T11:45:25.942Z,22.55
2019-03-21T11:47:59.562Z,22.33
2019-03-21T11:50:29.617Z,22.22
2019-03-21T11:53:00.589Z,22.58
2019-03-21T11:55:31.644Z,22.62
2019-03-21T11:58:02.581Z,22.73
2019-03-21T12:00:43.156Z,22.42
2019-03-21T12:03:06.519Z,23.47
2019-03-21T12:05:37.590Z,23.85
2019-03-21T12:08:08.529Z,23.86
2019-03-21T12:10:39.574Z,24.87
2019-03-21T12:13:10.515Z,25.48
2019-03-21T12:15:41.542Z,25.86
2019-03-21T12:18:12.831Z,25.75
2019-03-21T12:20:43.796Z,24.73
2019-03-21T12:23:14.673Z,24.46
2019-03-21T12:25:45.671Z,24.26
2019-03-21T12:28:16.569Z,23.00
2019-03-21T12:30:47.686Z,22.18
2019-03-21T12:33:18.611Z,21.09
2019-03-21T12:35:49.500Z,21.86
2019-03-21T12:38:20.458Z,22.64
2019-03-21T12:40:51.402Z,23.90
2019-03-21T12:43:22.549Z,24.87
2019-03-21T12:45:54.109Z,25.19
2019-03-21T12:48:25.104Z,26.04
2019-03-21T12:50:56.191Z,26.12
2019-03-21T12:53:27.326Z,25.69
2019-03-21T12:55:58.410Z,25.69
2019-03-21T12:58:29.512Z,25.82
2019-03-21T13:01:00.474Z,25.82
2019-03-21T13:03:31.499Z,26.45
2019-03-21T13:06:02.760Z,27.26
2019-03-21T13:08:34.294Z,27.16
2019-03-21T13:11:05.527Z,27.18
2019-03-21T13:13:36.509Z,25.37
2019-03-21T13:16:07.574Z,23.48
2019-03-21T13:18:38.672Z,23.43
2019-03-21T13:21:09.691Z,23.90
2019-03-21T13:23:40.702Z,24.25
2019-03-21T13:26:11.726Z,24.25
2019-03-21T13:28:42.888Z,25.08
2019-03-21T13:31:13.804Z,25.08
2019-03-21T13:33:44.802Z,25.54
2019-03-21T13:36:15.828Z,26.21
2019-03-21T13:38:46.796Z,26.21
2019-03-21T13:41:19.318Z,26.69
2019-03-21T13:43:50.504Z,26.56
2019-03-21T13:46:23.217Z,26.23
2019-03-21T13:48:57.840Z,26.34
2019-03-21T13:51:29.214Z,25.99
2019-03-21T13:54:01.884Z,25.79
2019-03-21T13:56:37.952Z,25.91
2019-03-21T13:59:06.298Z,26.47
2019-03-21T14:01:37.364Z,26.01
2019-03-21T14:04:08.792Z,25.93
2019-03-21T14:06:40.022Z,25.41
2019-03-21T14:09:11.044Z,26.06
2019-03-21T14:11:42.069Z,26.06
2019-03-21T14:14:13.150Z,26.51
2019-03-21T14:16:44.312Z,25.55
2019-03-21T14:19:18.358Z,25.55
2019-03-21T14:21:49.334Z,24.92
2019-03-21T14:24:20.515Z,24.48
2019-03-21T14:26:51.542Z,24.48
2019-03-21T14:29:22.596Z,24.59
2019-03-21T14:31:53.628Z,24.76
2019-03-21T14:34:24.734Z,24.47
2019-03-21T14:36:56.899Z,24.47
2019-03-21T14:39:27.912Z,24.60
2019-03-21T14:41:59.016Z,25.20
2019-03-21T14:44:30.392Z,25.47
2019-03-21T14:47:02.338Z,24.58
2019-03-21T14:50:13.099Z,24.18
2019-03-21T14:52:44.689Z,24.06
2019-03-21T14:55:21.618Z,24.02
2019-03-21T14:57:56.959Z,24.08
2019-03-21T15:00:28.094Z,23.71
2019-03-21T15:02:59.212Z,23.44
2019-03-21T15:05:30.155Z,23.10
2019-03-21T15:08:05.748Z,23.50
2019-03-21T15:10:38.623Z,23.46
2019-03-21T15:13:09.595Z,22.83
2019-03-21T15:15:40.555Z,22.17
2019-03-21T15:18:11.637Z,22.44
2019-03-21T15:20:42.686Z,23.09
2019-03-21T15:23:13.781Z,23.44
2019-03-21T15:25:44.912Z,21.73
2019-03-21T15:28:16.008Z,21.91
2019-03-21T15:30:47.103Z,22.73
2019-03-21T15:33:18.444Z,23.23
2019-03-21T15:35:49.394Z,23.10
2019-03-21T15:38:20.345Z,22.60
2019-03-21T15:40:51.521Z,22.71
2019-03-21T15:43:22.517Z,23.00
2019-03-21T15:45:53.516Z,22.88
2019-03-21T15:48:24.647Z,22.76
2019-03-21T15:51:04.274Z,22.47
2019-03-21T15:53:28.392Z,22.28
2019-03-21T15:55:59.387Z,22.14
2019-03-21T15:58:30.408Z,22.17
2019-03-21T16:01:01.784Z,21.89
2019-03-21T16:03:32.835Z,21.61
2019-03-21T16:06:03.963Z,21.17
2019-03-21T16:08:35.038Z,21.15
2019-03-21T16:11:09.299Z,20.94
2019-03-21T16:13:40.478Z,20.91
2019-03-21T16:16:14.317Z,20.84
2019-03-21T16:18:45.739Z,20.79
2019-03-21T16:21:16.756Z,20.74
2019-03-21T16:23:47.703Z,20.73
2019-03-21T16:26:18.701Z,20.42
2019-03-21T16:28:49.638Z,19.77
2019-03-21T16:31:20.605Z,19.27
2019-03-21T16:33:51.477Z,19.27
2019-03-21T16:36:22.584Z,19.17
2019-03-21T16:38:53.661Z,19.01
2019-03-21T16:41:24.687Z,19.04
2019-03-21T16:43:55.852Z,18.93
2019-03-21T16:46:26.841Z,18.51
2019-03-21T16:48:57.698Z,18.13
2019-03-21T16:51:31.002Z,17.82
2019-03-21T16:54:01.968Z,17.61
2019-03-21T16:56:32.948Z,17.14
2019-03-21T16:59:03.977Z,17.13
2019-03-21T17:01:34.951Z,17.18
2019-03-21T17:04:06.127Z,17.16
2019-03-21T17:06:37.528Z,17.02
2019-03-21T17:09:10.104Z,16.87
2019-03-21T17:11:41.713Z,16.70
2019-03-21T17:14:13.891Z,16.45
2019-03-21T17:16:45.098Z,16.17
2019-03-21T17:19:16.131Z,15.71
2019-03-21T17:21:47.075Z,15.37
2019-03-21T17:24:28.712Z,15.10
2019-03-21T17:26:50.846Z,14.84
2019-03-21T17:29:22.172Z,14.57
2019-03-21T17:31:53.143Z,14.31
2019-03-21T17:34:27.221Z,14.10
2019-03-21T17:36:58.293Z,13.92
2019-03-21T17:39:29.323Z,13.73
2019-03-21T17:42:01.886Z,13.63
2019-03-21T17:44:33.005Z,13.47
2019-03-21T17:47:04.183Z,13.31
2019-03-21T17:49:35.163Z,13.16
2019-03-21T17:52:06.749Z,12.98
2019-03-21T17:54:41.734Z,12.93
2019-03-21T17:57:46.250Z,12.92
2019-03-21T18:00:16.919Z,12.84
2019-03-21T18:02:48.711Z,12.75
2019-03-21T18:05:20.065Z,12.74
2019-03-21T18:07:51.244Z,12.67
2019-03-21T18:10:34.980Z,12.49
2019-03-21T18:13:06.212Z,12.54
2019-03-21T18:15:37.238Z,12.48
2019-03-21T18:18:08.188Z,12.38
2019-03-21T18:20:40.212Z,12.37
2019-03-21T18:23:11.702Z,12.24
2019-03-21T18:25:42.735Z,12.15
2019-03-21T18:28:13.688Z,12.02
2019-03-21T18:30:44.585Z,11.91
2019-03-21T18:33:15.542Z,11.79
2019-03-21T18:35:46.785Z,11.57
2019-03-21T18:38:17.808Z,11.38
2019-03-21T18:40:48.741Z,11.22
2019-03-21T18:43:19.836Z,11.09
2019-03-21T18:45:50.800Z,10.94
2019-03-21T18:48:22.016Z,10.79
2019-03-21T18:50:52.973Z,10.63
2019-03-21T18:53:24.465Z,10.51
2019-03-21T18:55:55.973Z,10.48
2019-03-21T18:58:27.334Z,10.37
2019-03-21T19:01:01.106Z,10.23
2019-03-21T19:03:32.048Z,10.07
2019-03-21T19:06:03.524Z,9.97
2019-03-21T19:08:34.637Z,9.90
2019-03-21T19:11:26.425Z,9.78
2019-03-21T19:13:57.937Z,9.62
2019-03-21T19:16:32.081Z,9.46
2019-03-21T19:19:01.622Z,9.32
2019-03-21T19:21:32.919Z,9.27
2019-03-21T19:24:04.422Z,9.24
2019-03-21T19:26:38.729Z,9.17
2019-03-21T19:29:10.101Z,9.07
2019-03-21T19:31:41.897Z,8.98
2019-03-21T19:34:13.082Z,8.86
2019-03-21T19:36:44.302Z,8.71
2019-03-21T19:39:15.230Z,8.60
2019-03-21T19:41:46.364Z,8.48
2019-03-21T19:44:21.089Z,8.33
2019-03-21T19:46:52.543Z,8.14
2019-03-21T19:49:23.401Z,8.00
2019-03-21T19:51:55.113Z,7.92
2019-03-21T19:54:26.297Z,7.91
2019-03-21T19:56:58.641Z,7.90
2019-03-21T19:59:29.939Z,7.87
2019-03-21T20:02:00.992Z,7.88
2019-03-21T20:04:33.870Z,7.89
2019-03-21T20:07:05.579Z,7.78
2019-03-21T20:09:36.939Z,7.64
2019-03-21T20:12:08.152Z,7.50
2019-03-21T20:14:39.203Z,7.37
2019-03-21T20:17:10.368Z,7.24
2019-03-21T20:19:41.337Z,7.12
2019-03-21T20:22:12.457Z,7.01
2019-03-21T20:24:43.519Z,6.90
2019-03-21T20:27:14.457Z,6.80
2019-03-21T20:29:45.365Z,6.77
2019-03-21T20:32:20.751Z,6.70
2019-03-21T20:34:49.105Z,6.72
2019-03-21T20:37:20.221Z,6.68
2019-03-21T20:39:51.253Z,6.63
2019-03-21T20:42:22.297Z,6.61
2019-03-21T20:44:53.269Z,6.46
2019-03-21T20:47:24.281Z,6.34
2019-03-21T20:49:55.246Z,6.31
2019-03-21T20:52:26.311Z,6.32
2019-03-21T20:54:57.295Z,6.24
2019-03-21T20:57:29.926Z,6.21
2019-03-21T21:00:00.933Z,6.18
2019-03-21T21:02:31.962Z,6.13
2019-03-21T21:05:02.902Z,6.19
2019-03-21T21:07:34.067Z,6.12
2019-03-21T21:10:07.381Z,6.08
2019-03-21T21:12:38.377Z,5.98
2019-03-21T21:15:11.786Z,5.85
2019-03-21T21:17:43.239Z,5.76
2019-03-21T21:20:16.388Z,5.70
2019-03-21T21:22:47.453Z,5.59
2019-03-21T21:25:18.469Z,5.48
2019-03-21T21:27:50.346Z,5.41
2019-03-21T21:30:22.530Z,5.42
2019-03-21T21:33:01.250Z,5.35
2019-03-21T21:35:32.268Z,5.36
2019-03-21T21:38:03.208Z,5.29
2019-03-21T21:40:34.163Z,5.22
2019-03-21T21:43:05.283Z,5.17
2019-03-21T21:45:36.534Z,5.09
2019-03-21T21:48:07.488Z,4.99
2019-03-21T21:50:38.476Z,5.05
2019-03-21T21:53:09.481Z,4.98
2019-03-21T21:55:40.735Z,4.90
2019-03-21T21:58:11.810Z,4.82
2019-03-21T22:00:42.911Z,4.89
2019-03-21T22:03:13.800Z,4.86
2019-03-21T22:05:44.823Z,4.74
2019-03-21T22:08:15.922Z,4.64
2019-03-21T22:10:46.880Z,4.57
2019-03-21T22:13:17.810Z,4.51
2019-03-21T22:15:48.769Z,4.42
2019-03-21T22:18:19.672Z,4.34
2019-03-21T22:20:50.773Z,4.30
2019-03-21T22:23:21.746Z,4.28
2019-03-21T22:25:52.641Z,4.27
2019-03-21T22:28:23.538Z,4.21
2019-03-21T22:30:54.781Z,4.09
2019-03-21T22:33:25.734Z,4.07
2019-03-21T22:35:56.749Z,3.99
2019-03-21T22:38:27.741Z,3.97
2019-03-21T22:40:58.853Z,3.94
2019-03-21T22:43:29.798Z,3.95
2019-03-21T22:46:00.714Z,3.96
2019-03-21T22:48:31.647Z,3.98
2019-03-21T22:51:02.599Z,3.92
2019-03-21T22:53:33.750Z,3.99
2019-03-21T22:56:04.768Z,3.83
2019-03-21T22:58:36.642Z,3.78
2019-03-21T23:01:07.812Z,3.74
2019-03-21T23:03:38.748Z,3.70
2019-03-21T23:06:09.623Z,3.62
2019-03-21T23:08:40.551Z,3.49
2019-03-21T23:11:11.453Z,3.44
2019-03-21T23:13:42.381Z,3.37
2019-03-21T23:16:13.280Z,3.40
2019-03-21T23:18:44.228Z,3.54
2019-03-21T23:21:15.121Z,3.41
2019-03-21T23:23:45.995Z,3.37
2019-03-21T23:26:16.917Z,3.35
2019-03-21T23:28:47.816Z,3.29
2019-03-21T23:31:18.678Z,3.21
2019-03-21T23:33:49.898Z,3.15
2019-03-21T23:36:20.916Z,3.13
2019-03-21T23:38:51.816Z,3.06
2019-03-21T23:41:22.812Z,2.98
2019-03-21T23:43:53.713Z,2.96
2019-03-21T23:46:24.669Z,2.90
2019-03-21T23:48:55.559Z,2.93
2019-03-21T23:51:26.678Z,2.89
2019-03-21T23:53:57.556Z,2.87
2019-03-21T23:56:28.779Z,2.87
2019-03-21T23:58:59.746Z,2.89
